Time;durP1;ratioP1;P1;durP2;ratioP2;P2;SDS_P1;SDS_P2;PMS_P1;PMS_P2;Temp;Humidity;BMP_temperature;BMP_pressure;BME280_temperature;BME280_humidity;BME280_pressure;Samples;Min_cycle;Max_cycle;Signal;HPM_P1;HPM_P2
2022/01/16 00:05:03;;;;;;;82.90;25.00;;;;;;;1.60;100.00;99897.75;5021677;28;20207;-84
2022/01/16 00:07:31;;;;;;;227.40;33.40;;;;;;;1.53;100.00;99883.06;5068386;28;20250;-83
2022/01/16 00:10:00;;;;;;;115.90;27.43;;;;;;;1.52;100.00;99894.38;5092521;27;20210;-83
2022/01/16 00:12:29;;;;;;;237.10;35.53;;;;;;;1.48;100.00;99897.94;5070233;28;20185;-83
2022/01/16 00:14:59;;;;;;;133.93;27.87;;;;;;;1.51;100.00;99897.88;5067474;28;20208;-83
2022/01/16 00:17:34;;;;;;;149.07;30.07;;;;;;;1.50;100.00;99921.41;5072625;28;20185;-83
2022/01/16 00:20:03;;;;;;;214.93;31.57;;;;;;;1.29;100.00;99920.84;5063073;28;20325;-84
2022/01/16 00:22:38;;;;;;;77.03;23.77;;;;;;;1.60;100.00;99915.16;5072257;28;20215;-83
2022/01/16 00:25:07;;;;;;;134.37;28.57;;;;;;;1.64;100.00;99916.81;5072990;28;20199;-84
2022/01/16 00:27:37;;;;;;;164.47;29.00;;;;;;;1.49;100.00;99906.63;5066137;28;20200;-83
2022/01/16 00:30:07;;;;;;;79.93;27.13;;;;;;;1.56;100.00;99918.72;5090347;27;20241;-83
2022/01/16 00:32:39;;;;;;;102.73;28.33;;;;;;;1.57;100.00;99910.88;5159604;27;20194;-84
2022/01/16 00:35:09;;;;;;;69.20;25.37;;;;;;;1.58;100.00;99912.59;5115523;28;20214;-83
2022/01/16 00:37:37;;;;;;;129.87;27.17;;;;;;;1.60;100.00;99900.34;5104957;28;20191;-83
2022/01/16 00:40:09;;;;;;;116.13;25.47;;;;;;;1.63;100.00;99891.59;5012333;28;20755;-83
2022/01/16 00:42:40;;;;;;;115.63;26.90;;;;;;;1.46;100.00;99907.56;5013279;28;20194;-83
2022/01/16 00:45:15;;;;;;;101.27;27.07;;;;;;;1.55;100.00;99909.16;5008760;28;20202;-84
2022/01/16 00:47:45;;;;;;;92.50;27.50;;;;;;;1.54;100.00;99896.97;5007953;28;20206;-83
2022/01/16 00:50:13;;;;;;;64.77;24.73;;;;;;;1.60;100.00;99909.94;5007557;28;20214;-83
2022/01/16 00:52:43;;;;;;;79.80;27.80;;;;;;;1.63;100.00;99912.50;5023666;28;20239;-83
2022/01/16 00:55:11;;;;;;;137.27;28.77;;;;;;;1.63;100.00;99930.78;5055508;28;20185;-84
2022/01/16 00:57:40;;;;;;;115.50;30.07;;;;;;;1.57;100.00;99913.47;5044957;27;20192;-83
2022/01/16 01:00:11;;;;;;;111.07;27.27;;;;;;;1.40;100.00;99921.53;5152294;27;20190;-83
2022/01/16 01:02:39;;;;;;;85.97;26.07;;;;;;;1.41;100.00;99906.75;5151544;27;20202;-83
2022/01/16 01:05:10;;;;;;;63.23;25.43;;;;;;;1.47;100.00;99917.09;5154270;27;20190;-84
2022/01/16 01:07:39;;;;;;;58.87;25.73;;;;;;;1.59;100.00;99901.25;5146478;27;20228;-84
2022/01/16 01:10:33;;;;;;;49.73;25.70;;;;;;;1.61;100.00;99896.84;5080807;28;20227;-83
2022/01/16 01:13:12;;;;;;;55.77;25.47;;;;;;;1.68;100.00;99892.41;5115984;28;20201;-84
2022/01/16 01:15:46;;;;;;;96.13;28.30;;;;;;;1.75;100.00;99894.03;5111230;28;20209;-84
2022/01/16 01:18:18;;;;;;;71.60;27.63;;;;;;;1.66;100.00;99908.09;5103783;28;20285;-84
2022/01/16 01:20:50;;;;;;;80.43;30.03;;;;;;;1.63;100.00;99904.66;5109710;28;20260;-83
2022/01/16 01:23:19;;;;;;;57.67;27.57;;;;;;;1.56;100.00;99906.53;5105016;28;20193;-84
2022/01/16 01:25:48;;;;;;;48.93;27.20;;;;;;;1.71;100.00;99900.19;5106282;28;20203;-84
2022/01/16 01:28:16;;;;;;;49.27;26.20;;;;;;;1.69;100.00;99888.91;5124789;27;20213;-83
2022/01/16 01:30:45;;;;;;;71.33;28.57;;;;;;;1.62;100.00;99876.84;5154356;27;20209;-84
2022/01/16 01:33:18;;;;;;;49.67;26.57;;;;;;;1.58;100.00;99826.44;5154935;27;20582;-83
2022/01/16 01:35:50;;;;;;;48.87;25.90;;;;;;;1.66;100.00;99828.91;5155650;27;20269;-83
2022/01/16 01:38:20;;;;;;;51.50;26.50;;;;;;;1.77;100.00;99816.53;5157741;27;20209;-83
2022/01/16 01:40:51;;;;;;;50.13;27.10;;;;;;;1.79;100.00;99822.59;5104343;27;20193;-83
2022/01/16 01:51:44;;;;;;;50.53;25.63;;;;;;;1.49;100.00;99891.84;5153353;27;20198;-83
2022/01/16 01:54:15;;;;;;;56.10;24.40;;;;;;;1.28;100.00;99897.38;5148953;27;20201;-83
2022/01/16 01:56:43;;;;;;;70.40;24.60;;;;;;;1.04;100.00;99896.81;5156563;27;20200;-84
2022/01/16 01:59:13;;;;;;;56.50;23.87;;;;;;;1.31;100.00;99881.69;5159879;27;20200;-83
2022/01/16 02:01:42;;;;;;;55.50;24.00;;;;;;;1.39;100.00;99880.69;5161287;27;20217;-84
2022/01/16 02:04:10;;;;;;;59.00;25.27;;;;;;;1.38;100.00;99880.72;5148444;27;20197;-83
2022/01/16 02:06:41;;;;;;;72.97;25.47;;;;;;;1.53;100.00;99875.22;5150625;27;20428;-83
2022/01/16 02:09:10;;;;;;;79.60;27.10;;;;;;;1.44;100.00;99871.00;5150355;27;20235;-83
2022/01/16 02:11:38;;;;;;;101.63;27.07;;;;;;;1.47;100.00;99864.91;5150627;27;20321;-84
2022/01/16 02:14:12;;;;;;;122.87;29.60;;;;;;;1.40;100.00;99863.28;5154635;27;20204;-83
2022/01/16 02:28:13;;;;;;;79.60;29.17;;;;;;;1.63;100.00;99878.56;5156659;27;20182;-83
2022/01/16 02:36:28;;;;;;;88.03;30.77;;;;;;;1.52;100.00;99872.66;5158115;27;20185;-83
2022/01/16 02:39:00;;;;;;;63.10;28.90;;;;;;;1.59;100.00;99872.53;5152754;27;20691;-84
2022/01/16 02:41:29;;;;;;;86.20;29.80;;;;;;;1.62;100.00;99882.91;5151423;27;20214;-83
2022/01/16 02:43:59;;;;;;;107.33;30.90;;;;;;;1.56;100.00;99871.72;5148412;27;20225;-84
2022/01/16 02:46:36;;;;;;;59.80;27.37;;;;;;;1.51;100.00;99858.72;5150154;27;20186;-83
2022/01/16 02:49:17;;;;;;;67.37;27.83;;;;;;;1.50;100.00;99858.78;5149893;27;20241;-83
2022/01/16 02:51:46;;;;;;;79.83;32.03;;;;;;;1.34;100.00;99856.38;5146278;27;20271;-84
2022/01/16 02:54:16;;;;;;;68.80;29.73;;;;;;;1.38;100.00;99849.38;5152481;27;20280;-83
2022/01/16 02:56:45;;;;;;;65.60;29.90;;;;;;;1.44;100.00;99852.75;5148982;27;20196;-83
2022/01/16 02:59:14;;;;;;;67.07;31.97;;;;;;;1.40;100.00;99848.47;5146457;27;20205;-83
2022/01/16 03:01:42;;;;;;;72.40;32.40;;;;;;;1.40;100.00;99843.25;5148142;27;20278;-84
2022/01/16 03:04:12;;;;;;;64.50;30.60;;;;;;;1.46;100.00;99849.28;5149134;27;20249;-83
2022/01/16 03:06:40;;;;;;;127.20;35.17;;;;;;;1.41;100.00;99839.75;5153806;27;20197;-83
2022/01/16 03:09:09;;;;;;;72.20;33.07;;;;;;;1.36;100.00;99843.34;5147544;27;20197;-83
2022/01/16 03:11:46;;;;;;;89.87;33.97;;;;;;;1.47;100.00;99837.94;5146264;27;20225;-83
2022/01/16 03:14:17;;;;;;;135.07;38.30;;;;;;;1.29;100.00;99847.78;5149981;27;20196;-83
2022/01/16 03:16:49;;;;;;;80.47;36.03;;;;;;;1.18;100.00;99847.09;5154041;27;20253;-83
2022/01/16 03:22:05;;;;;;;89.57;32.67;;;;;;;1.36;100.00;99835.50;5157945;27;20205;-83
2022/01/16 03:24:37;;;;;;;194.63;37.07;;;;;;;1.15;100.00;99821.88;5162920;27;20216;-82
2022/01/16 03:27:12;;;;;;;89.63;29.50;;;;;;;1.33;100.00;99807.69;5166877;27;20190;-83
2022/01/16 03:29:42;;;;;;;118.37;30.90;;;;;;;1.40;100.00;99811.94;5181113;27;20201;-82
2022/01/16 03:32:12;;;;;;;99.90;29.73;;;;;;;1.33;100.00;99812.91;5183372;27;20205;-80
2022/01/16 03:34:41;;;;;;;95.40;29.63;;;;;;;1.36;100.00;99809.41;5110896;27;20194;-83
2022/01/16 03:37:09;;;;;;;79.27;29.17;;;;;;;1.40;100.00;99806.72;5162286;27;20246;-83
2022/01/16 03:39:38;;;;;;;86.07;29.00;;;;;;;1.41;100.00;99807.56;5158279;27;20228;-84
2022/01/16 03:42:10;;;;;;;92.07;30.40;;;;;;;1.34;100.00;99812.03;5157409;27;20254;-84
2022/01/16 03:44:41;;;;;;;108.87;30.97;;;;;;;1.34;100.00;99809.41;5153320;27;20198;-84
2022/01/16 03:47:12;;;;;;;96.53;30.80;;;;;;;1.37;100.00;99821.56;5159195;27;20185;-84
2022/01/16 03:49:42;;;;;;;81.07;30.23;;;;;;;1.50;100.00;99820.47;5068107;28;20200;-83
2022/01/16 03:52:10;;;;;;;80.67;29.73;;;;;;;1.52;100.00;99808.25;5069506;28;20195;-83
2022/01/16 03:54:38;;;;;;;91.10;29.90;;;;;;;1.50;100.00;99815.25;5068732;28;20196;-84
2022/01/16 03:57:09;;;;;;;93.40;30.50;;;;;;;1.62;100.00;99814.19;5069853;28;20196;-83
2022/01/16 03:59:37;;;;;;;90.77;30.90;;;;;;;1.54;100.00;99819.53;5074617;28;20282;-85
2022/01/16 04:02:06;;;;;;;94.50;32.10;;;;;;;1.53;100.00;99807.34;5069675;28;20644;-83
2022/01/16 04:04:37;;;;;;;107.53;30.60;;;;;;;1.61;100.00;99805.47;5068801;28;20212;-84
2022/01/16 04:07:08;;;;;;;175.43;34.10;;;;;;;1.56;100.00;99803.84;5084741;27;20205;-84
2022/01/16 04:09:37;;;;;;;158.63;33.50;;;;;;;1.53;100.00;99809.09;5154811;27;20655;-84
2022/01/16 04:12:09;;;;;;;163.40;34.50;;;;;;;1.43;100.00;99809.25;5158205;27;20217;-84
2022/01/16 04:17:25;;;;;;;98.90;31.60;;;;;;;1.51;100.00;99800.44;5158047;27;20200;-84
2022/01/16 04:19:54;;;;;;;152.50;33.73;;;;;;;1.52;100.00;99818.69;5152570;27;20223;-84
2022/01/16 04:22:22;;;;;;;168.13;33.40;;;;;;;1.38;100.00;99808.50;5150760;27;20198;-83
2022/01/16 04:24:51;;;;;;;303.80;45.30;;;;;;;1.29;100.00;99816.47;5150081;27;20222;-83
2022/01/16 04:27:20;;;;;;;221.73;37.53;;;;;;;1.26;100.00;99828.72;5155189;27;20193;-84
2022/01/16 04:29:49;;;;;;;98.37;27.23;;;;;;;1.31;100.00;99817.31;5155026;27;20185;-83
2022/01/16 04:32:18;;;;;;;81.80;26.97;;;;;;;1.11;100.00;99821.97;5154487;27;20480;-84
2022/01/16 04:34:46;;;;;;;80.90;24.27;;;;;;;1.02;100.00;99820.34;5152812;27;20267;-83
2022/01/16 04:37:16;;;;;;;64.63;21.90;;;;;;;1.11;100.00;99819.34;5149310;27;20239;-83
2022/01/16 04:39:49;;;;;;;58.77;23.60;;;;;;;1.00;100.00;99811.69;5162547;27;20237;-83
2022/01/16 04:45:06;;;;;;;48.80;18.77;;;;;;;1.22;100.00;99808.75;5157918;27;20645;-83
2022/01/16 04:47:34;;;;;;;47.53;19.73;;;;;;;1.19;100.00;99806.19;5149221;27;20202;-83
2022/01/16 04:50:04;;;;;;;41.43;17.93;;;;;;;1.32;100.00;99797.28;5152043;27;20198;-84
2022/01/16 04:52:32;;;;;;;37.17;17.20;;;;;;;1.25;100.00;99795.66;5154124;27;20270;-84
2022/01/16 04:55:00;;;;;;;33.50;15.07;;;;;;;1.23;100.00;99793.06;5154673;27;20198;-84
2022/01/16 04:57:28;;;;;;;35.33;15.97;;;;;;;1.20;100.00;99792.28;5151643;27;20182;-84
2022/01/16 04:59:57;;;;;;;39.77;16.70;;;;;;;1.28;100.00;99790.41;5148545;27;20633;-84
2022/01/16 05:02:27;;;;;;;37.30;17.57;;;;;;;1.28;100.00;99793.00;5128326;27;20204;-84
2022/01/16 05:04:56;;;;;;;33.07;15.07;;;;;;;1.26;100.00;99794.78;5169953;27;20189;-84
2022/01/16 05:07:24;;;;;;;34.83;16.10;;;;;;;1.02;100.00;99793.41;5178427;27;20199;-83
2022/01/16 05:09:52;;;;;;;32.33;14.20;;;;;;;1.20;100.00;99785.31;5177977;27;20234;-84
2022/01/16 05:12:28;;;;;;;33.10;14.93;;;;;;;1.06;100.00;99798.56;5171491;27;20217;-84
2022/01/16 05:17:44;;;;;;;27.93;13.90;;;;;;;1.18;100.00;99792.31;5179421;27;20189;-83
2022/01/16 05:20:13;;;;;;;32.83;14.27;;;;;;;1.22;100.00;99791.34;5177817;27;20197;-85
2022/01/16 05:22:42;;;;;;;30.53;15.13;;;;;;;1.07;100.00;99800.28;5196663;27;20169;-82
2022/01/16 05:25:13;;;;;;;34.47;16.43;;;;;;;1.07;100.00;99808.13;5195861;27;20187;-83
2022/01/16 05:27:41;;;;;;;29.97;14.33;;;;;;;1.10;100.00;99804.59;5134862;27;20209;-84
2022/01/16 05:30:10;;;;;;;32.30;14.80;;;;;;;1.00;100.00;99790.81;5128410;27;20226;-84
2022/01/16 05:32:39;;;;;;;33.37;16.83;;;;;;;1.14;100.00;99793.22;5129893;27;20226;-84
2022/01/16 05:35:11;;;;;;;36.37;17.53;;;;;;;1.02;100.00;99799.50;5130110;27;20198;-84
2022/01/16 05:37:39;;;;;;;32.33;15.83;;;;;;;1.07;100.00;99794.22;5129000;27;20197;-84
2022/01/16 05:40:08;;;;;;;32.30;16.13;;;;;;;1.00;100.00;99798.66;5130941;27;20218;-84
2022/01/16 05:42:37;;;;;;;31.40;15.70;;;;;;;0.96;100.00;99798.72;5130696;27;20198;-84
2022/01/16 05:45:06;;;;;;;24.50;12.87;;;;;;;0.91;100.00;99809.22;5134476;27;20203;-84
2022/01/16 05:47:34;;;;;;;24.87;12.93;;;;;;;0.95;100.00;99818.72;5133651;27;20202;-84
2022/01/16 05:50:03;;;;;;;22.93;12.60;;;;;;;0.99;100.00;99827.38;5131035;27;20194;-84
2022/01/16 05:52:47;;;;;;;24.53;12.47;;;;;;;1.08;100.00;99835.94;5163202;27;20273;-85
2022/01/16 05:55:17;;;;;;;23.67;12.90;;;;;;;1.23;100.00;99834.81;5172875;27;20196;-85
2022/01/16 05:57:46;;;;;;;24.60;12.67;;;;;;;1.12;100.00;99839.34;5172354;27;20193;-84
2022/01/16 06:00:16;;;;;;;19.80;10.50;;;;;;;1.13;100.00;99846.28;5166271;27;20189;-84
2022/01/16 06:02:45;;;;;;;18.90;9.70;;;;;;;1.07;100.00;99849.00;5169012;27;20200;-84
2022/01/16 06:05:13;;;;;;;16.80;8.33;;;;;;;1.14;100.00;99851.47;5168135;27;20204;-85
2022/01/16 06:07:45;;;;;;;16.87;9.20;;;;;;;1.13;100.00;99843.66;5174141;27;20185;-84
2022/01/16 06:10:17;;;;;;;14.63;9.03;;;;;;;1.28;100.00;99842.59;5170378;27;20224;-84
2022/01/16 06:12:46;;;;;;;15.83;8.63;;;;;;;1.27;100.00;99833.91;5126316;27;20251;-84
2022/01/16 06:15:15;;;;;;;17.30;9.67;;;;;;;1.14;100.00;99820.16;5127219;27;20202;-85
2022/01/16 06:17:43;;;;;;;17.23;9.30;;;;;;;1.34;100.00;99832.03;5130503;27;20194;-84
2022/01/16 06:20:12;;;;;;;16.30;10.07;;;;;;;1.15;100.00;99816.66;5122231;27;20294;-85
2022/01/16 06:22:40;;;;;;;17.80;10.13;;;;;;;1.08;100.00;99812.44;5130582;27;20204;-85
2022/01/16 06:25:09;;;;;;;18.07;10.43;;;;;;;1.07;100.00;99815.94;5126701;27;20239;-85
2022/01/16 06:27:40;;;;;;;16.87;9.97;;;;;;;1.08;100.00;99820.28;5068812;28;20199;-85
2022/01/16 06:30:11;;;;;;;18.63;9.93;;;;;;;1.06;100.00;99814.22;5076043;28;20195;-84
2022/01/16 06:32:41;;;;;;;17.40;9.50;;;;;;;1.03;100.00;99824.69;5109683;28;20227;-84
2022/01/16 06:35:13;;;;;;;15.37;9.07;;;;;;;0.99;100.00;99832.59;5105464;28;20195;-84
2022/01/16 06:37:43;;;;;;;17.30;10.27;;;;;;;1.02;100.00;99830.78;5104938;28;20197;-83
2022/01/16 06:40:14;;;;;;;18.17;10.67;;;;;;;1.14;100.00;99811.47;5104673;28;20833;-85
2022/01/16 06:42:45;;;;;;;19.90;10.97;;;;;;;1.31;100.00;99808.59;5102956;28;20194;-84
2022/01/16 06:45:13;;;;;;;19.30;12.30;;;;;;;1.31;100.00;99811.22;5106087;28;20197;-85
2022/01/16 06:47:42;;;;;;;23.00;12.53;;;;;;;1.35;100.00;99821.59;5103510;28;20665;-83
2022/01/16 06:50:11;;;;;;;19.83;11.73;;;;;;;1.22;100.00;99834.84;5105297;28;20207;-84
2022/01/16 06:52:41;;;;;;;20.13;12.93;;;;;;;1.20;100.00;99827.03;5067968;28;20212;-84
2022/01/16 06:55:11;;;;;;;17.77;11.10;;;;;;;1.09;100.00;99826.34;5061560;28;20276;-84
2022/01/16 06:57:40;;;;;;;19.80;11.60;;;;;;;1.03;100.00;99819.47;5068634;27;20215;-83
2022/01/16 07:00:13;;;;;;;20.43;11.20;;;;;;;1.14;100.00;99830.59;5062756;27;20189;-85
2022/01/16 07:02:42;;;;;;;19.37;12.43;;;;;;;1.07;100.00;99830.75;5058164;28;20284;-84
2022/01/16 07:05:12;;;;;;;18.63;11.37;;;;;;;1.09;100.00;99844.59;5057214;28;20289;-84
2022/01/16 07:07:41;;;;;;;19.27;10.50;;;;;;;1.18;100.00;99848.84;5062091;28;20204;-84
2022/01/16 07:10:12;;;;;;;18.40;10.63;;;;;;;1.12;100.00;99853.25;5058860;27;20209;-84
2022/01/16 07:12:41;;;;;;;17.60;11.70;;;;;;;0.99;100.00;99867.34;5110561;28;20219;-84
2022/01/16 07:15:12;;;;;;;21.70;11.67;;;;;;;1.14;100.00;99869.72;5109730;28;20202;-84
2022/01/16 07:17:42;;;;;;;21.90;12.83;;;;;;;1.08;100.00;99875.06;5110664;28;20646;-83
2022/01/16 07:20:14;;;;;;;23.87;13.10;;;;;;;1.15;100.00;99868.84;5124169;28;20193;-84
2022/01/16 07:22:43;;;;;;;21.47;12.20;;;;;;;1.09;100.00;99876.78;5109529;28;20203;-85
2022/01/16 07:25:12;;;;;;;24.43;13.33;;;;;;;1.08;100.00;99893.31;5110207;28;20187;-84
2022/01/16 07:27:42;;;;;;;24.17;12.47;;;;;;;1.05;100.00;99888.13;5111801;28;20255;-84
2022/01/16 07:30:12;;;;;;;23.33;13.23;;;;;;;0.97;100.00;99891.75;5104905;28;20215;-84
2022/01/16 07:32:42;;;;;;;23.43;13.47;;;;;;;0.92;100.00;99890.91;5105412;28;20272;-85
2022/01/16 07:35:12;;;;;;;20.27;11.77;;;;;;;1.07;100.00;99893.34;5074566;28;20213;-84
2022/01/16 07:38:05;;;;;;;27.57;14.77;;;;;;;0.92;100.00;99906.56;5073362;27;20251;-84
2022/01/16 07:40:35;;;;;;;30.27;16.87;;;;;;;0.83;100.00;99912.75;5171637;27;20197;-84
2022/01/16 07:43:12;;;;;;;27.87;13.93;;;;;;;0.93;100.00;99910.91;5168402;27;20223;-85
2022/01/16 07:45:42;;;;;;;25.97;14.70;;;;;;;0.93;100.00;99903.06;5166443;27;20185;-85
2022/01/16 07:48:11;;;;;;;23.33;13.13;;;;;;;0.99;100.00;99911.69;5176280;27;20278;-84
2022/01/16 07:50:41;;;;;;;28.63;15.03;;;;;;;0.90;100.00;99911.81;5163291;27;20213;-84
2022/01/16 07:53:10;;;;;;;30.70;15.83;;;;;;;0.89;100.00;99915.31;5167792;27;20699;-84
2022/01/16 07:55:38;;;;;;;26.37;15.57;;;;;;;0.83;100.00;99926.66;5171724;27;20276;-84
2022/01/16 07:58:06;;;;;;;29.80;15.37;;;;;;;0.82;100.00;99918.84;5119134;27;20192;-84
2022/01/16 08:00:36;;;;;;;27.17;14.70;;;;;;;0.97;100.00;99913.47;5172399;27;20191;-83
2022/01/16 08:03:10;;;;;;;34.53;17.30;;;;;;;0.86;100.00;99917.94;5164614;27;20205;-84
2022/01/16 08:05:39;;;;;;;29.97;14.83;;;;;;;0.82;100.00;99898.00;5117033;27;20202;-84
2022/01/16 08:08:08;;;;;;;32.27;17.27;;;;;;;0.83;100.00;99907.53;5170710;27;20200;-84
2022/01/16 08:10:38;;;;;;;35.70;19.03;;;;;;;0.86;100.00;99915.31;5171426;27;20197;-84
2022/01/16 08:13:06;;;;;;;33.90;17.70;;;;;;;0.84;100.00;99904.91;5170836;27;20228;-84
2022/01/16 08:15:37;;;;;;;30.00;16.63;;;;;;;0.78;100.00;99919.78;5165810;27;20249;-84
2022/01/16 08:18:09;;;;;;;28.03;14.50;;;;;;;0.83;100.00;99915.38;5172772;27;20253;-84
2022/01/16 08:20:43;;;;;;;29.97;16.20;;;;;;;0.80;100.00;99904.97;5169434;27;20185;-84
2022/01/16 08:23:11;;;;;;;29.03;16.30;;;;;;;0.82;100.00;99914.50;5130011;27;20209;-84
2022/01/16 08:25:42;;;;;;;27.07;16.20;;;;;;;0.81;100.00;99904.97;5130879;27;20223;-84
2022/01/16 08:28:13;;;;;;;28.97;15.97;;;;;;;0.92;100.00;99906.56;5132126;27;20284;-84
2022/01/16 08:30:42;;;;;;;30.07;16.47;;;;;;;0.84;100.00;99909.25;5128297;27;20194;-84
2022/01/16 08:33:13;;;;;;;30.53;17.27;;;;;;;0.83;100.00;99912.75;5128326;27;20242;-84
2022/01/16 08:35:42;;;;;;;28.53;15.73;;;;;;;0.82;100.00;99908.44;5051667;28;20208;-84
2022/01/16 08:38:14;;;;;;;27.67;16.30;;;;;;;0.84;100.00;99911.88;5046791;28;20217;-84
2022/01/16 08:40:43;;;;;;;31.03;16.73;;;;;;;0.87;100.00;99919.69;5052052;28;20200;-83
2022/01/16 08:43:13;;;;;;;34.07;16.23;;;;;;;0.86;100.00;99908.34;5049120;28;20193;-84
2022/01/16 08:45:45;;;;;;;28.23;15.57;;;;;;;0.95;100.00;99912.59;5047810;28;20189;-84
2022/01/16 08:48:15;;;;;;;27.73;14.40;;;;;;;1.03;100.00;99909.91;5049068;28;20237;-84
2022/01/16 08:50:44;;;;;;;30.73;16.60;;;;;;;0.96;100.00;99916.06;5051821;28;20189;-84
2022/01/16 08:53:12;;;;;;;34.07;19.03;;;;;;;0.97;100.00;99925.63;5078935;27;20292;-84
2022/01/16 08:55:45;;;;;;;32.03;17.57;;;;;;;0.94;100.00;99923.06;5171989;27;20244;-83
2022/01/16 08:58:15;;;;;;;33.10;16.67;;;;;;;0.96;100.00;99926.50;5171790;27;20201;-84
2022/01/16 09:00:46;;;;;;;26.83;16.07;;;;;;;0.97;100.00;99931.72;5169993;27;20193;-84
2022/01/16 09:03:16;;;;;;;33.03;16.57;;;;;;;1.04;100.00;99935.09;5172498;27;20272;-84
2022/01/16 09:05:46;;;;;;;33.27;17.43;;;;;;;1.01;100.00;99935.13;5173336;27;20277;-84
2022/01/16 09:08:19;;;;;;;31.73;18.10;;;;;;;0.95;100.00;99930.00;5174021;27;20271;-84
2022/01/16 09:10:48;;;;;;;38.90;18.80;;;;;;;1.08;100.00;99927.22;5173336;27;20204;-84
2022/01/16 09:13:19;;;;;;;37.83;18.53;;;;;;;1.15;100.00;99934.06;5066519;28;20307;-84
2022/01/16 09:15:51;;;;;;;54.30;27.00;;;;;;;1.07;100.00;99941.16;5068658;28;20706;-84
2022/01/16 09:18:25;;;;;;;86.23;45.53;;;;;;;1.11;100.00;99937.59;5063298;28;20200;-84
2022/01/16 09:20:57;;;;;;;47.40;25.97;;;;;;;1.14;100.00;99952.34;5065730;28;20206;-84
2022/01/16 09:23:28;;;;;;;59.67;29.73;;;;;;;1.07;100.00;99948.97;5064567;28;20212;-84
2022/01/16 09:25:57;;;;;;;49.13;23.17;;;;;;;1.21;100.00;99955.75;5067008;28;20196;-84
2022/01/16 09:28:25;;;;;;;83.00;39.53;;;;;;;1.17;100.00;99952.31;5066696;28;20191;-84
2022/01/16 09:30:54;;;;;;;92.03;60.43;;;;;;;1.15;100.00;99959.28;5094087;27;20257;-84
2022/01/16 09:33:26;;;;;;;39.73;22.20;;;;;;;1.12;100.00;99957.59;5089912;28;20219;-84
2022/01/16 09:35:54;;;;;;;44.80;21.93;;;;;;;1.17;100.00;99967.13;5059038;28;20203;-84
2022/01/16 09:38:24;;;;;;;38.53;22.50;;;;;;;1.19;100.00;99971.44;5090115;28;20272;-83
2022/01/16 09:40:53;;;;;;;43.37;22.53;;;;;;;1.23;100.00;99964.41;5113657;28;20198;-83
2022/01/16 09:43:22;;;;;;;41.83;22.53;;;;;;;1.31;100.00;99967.78;5110524;28;20202;-83
2022/01/16 09:45:53;;;;;;;50.00;24.93;;;;;;;1.29;100.00;99980.00;5111325;28;20233;-83
2022/01/16 09:48:24;;;;;;;49.67;22.60;;;;;;;1.36;100.00;99981.66;5109294;28;20199;-83
2022/01/16 09:50:52;;;;;;;46.80;25.57;;;;;;;1.30;100.00;99984.34;5061057;28;20195;-83
2022/01/16 09:53:24;;;;;;;53.00;26.20;;;;;;;1.33;100.00;99992.09;5090432;28;20220;-83
2022/01/16 09:55:53;;;;;;;49.87;26.50;;;;;;;1.33;100.00;99990.38;5088170;28;20220;-83
2022/01/16 09:58:22;;;;;;;53.43;26.63;;;;;;;1.43;100.00;99998.94;5089523;28;20245;-83
2022/01/16 10:00:52;;;;;;;52.90;24.37;;;;;;;1.38;100.00;100008.59;5089348;28;20196;-83
2022/01/16 10:03:45;;;;;;;59.20;25.50;;;;;;;1.36;100.00;100000.78;5085024;28;20204;-83
2022/01/16 10:06:16;;;;;;;58.40;25.33;;;;;;;1.34;100.00;99999.06;5085618;28;20195;-83
2022/01/16 10:08:49;;;;;;;58.97;29.97;;;;;;;1.40;100.00;100001.59;5071099;28;20185;-82
2022/01/16 10:11:28;;;;;;;65.07;29.77;;;;;;;1.34;100.00;99991.22;5045942;28;20224;-83
2022/01/16 10:14:15;;;;;;;67.10;28.67;;;;;;;1.30;100.00;99998.25;5061692;28;20225;-83
2022/01/16 10:16:44;;;;;;;59.10;29.57;;;;;;;1.41;100.00;100004.19;5061070;27;20212;-84
2022/01/16 10:19:23;;;;;;;87.67;45.60;;;;;;;1.40;100.00;99989.41;4980412;28;20283;-83
2022/01/16 10:21:52;;;;;;;116.10;73.10;;;;;;;1.39;100.00;99982.47;5092179;28;20200;-83
2022/01/16 10:24:23;;;;;;;73.50;32.40;;;;;;;1.40;100.00;99985.94;5091989;28;20198;-83
2022/01/16 10:27:12;;;;;;;70.33;33.80;;;;;;;1.40;100.00;99988.53;5083436;28;20202;-83
2022/01/16 10:29:43;;;;;;;69.73;33.00;;;;;;;1.38;100.00;99979.88;5089316;28;20219;-84
2022/01/16 10:32:15;;;;;;;70.33;29.73;;;;;;;1.39;100.00;99981.59;5092090;28;20200;-83
2022/01/16 10:34:46;;;;;;;66.57;31.47;;;;;;;1.40;100.00;99981.56;5092651;28;20227;-83
2022/01/16 10:37:23;;;;;;;80.80;40.57;;;;;;;1.43;100.00;99991.09;5066951;28;20201;-83
2022/01/16 10:39:57;;;;;;;66.77;30.20;;;;;;;1.48;100.00;99984.09;5131683;27;20213;-82
2022/01/16 10:42:31;;;;;;;72.43;34.37;;;;;;;1.42;100.00;99976.31;5122563;27;20260;-85
2022/01/16 10:45:05;;;;;;;69.70;35.03;;;;;;;1.53;100.00;99981.41;5126189;27;20198;-85
2022/01/16 10:47:39;;;;;;;71.97;35.07;;;;;;;1.49;100.00;99977.97;5126662;27;20214;-84
2022/01/16 10:50:38;;;;;;;63.13;29.40;;;;;;;1.44;100.00;99958.91;5131670;27;20197;-84
2022/01/16 10:53:08;;;;;;;61.47;30.93;;;;;;;1.48;100.00;99976.25;5130015;27;20190;-85
2022/01/16 10:55:40;;;;;;;63.73;26.87;;;;;;;1.58;100.00;99976.97;5123128;27;20329;-85
2022/01/16 10:58:11;;;;;;;65.10;32.73;;;;;;;1.49;100.00;99974.50;5086420;27;20274;-83
2022/01/16 11:00:45;;;;;;;60.40;27.43;;;;;;;1.58;100.00;99975.25;5055053;28;20284;-84
2022/01/16 11:03:16;;;;;;;65.03;31.80;;;;;;;1.54;100.00;99981.38;5058657;27;20200;-83
2022/01/16 11:05:49;;;;;;;58.33;28.37;;;;;;;1.57;100.00;99990.94;5051227;28;20193;-84
2022/01/16 11:08:22;;;;;;;56.23;27.47;;;;;;;1.63;100.00;99975.16;5047072;28;20193;-84
2022/01/16 11:10:56;;;;;;;63.40;30.33;;;;;;;1.58;100.00;99975.25;5055721;28;20193;-84
2022/01/16 11:13:30;;;;;;;61.03;29.83;;;;;;;1.52;100.00;99977.94;4953597;29;20254;-84
2022/01/16 11:16:03;;;;;;;64.63;31.13;;;;;;;1.50;100.00;99971.88;4954690;28;20311;-83
2022/01/16 11:18:49;;;;;;;56.10;29.67;;;;;;;1.53;100.00;99961.38;4952501;28;20192;-84
2022/01/16 11:21:30;;;;;;;58.00;29.57;;;;;;;1.58;100.00;99979.59;4956071;28;20711;-84
2022/01/16 11:24:23;;;;;;;56.80;25.97;;;;;;;1.67;100.00;99969.03;4967310;28;20243;-84
2022/01/16 11:26:51;;;;;;;53.30;28.17;;;;;;;1.62;100.00;99973.44;4974705;28;20236;-82
2022/01/16 11:29:22;;;;;;;63.33;30.43;;;;;;;1.60;100.00;99980.44;4973673;28;20347;-83
2022/01/16 11:31:51;;;;;;;59.77;28.90;;;;;;;1.63;100.00;99967.31;5027936;28;20204;-82
2022/01/16 11:34:19;;;;;;;63.77;29.70;;;;;;;1.63;100.00;99960.34;5058797;28;20221;-84
2022/01/16 11:36:49;;;;;;;56.23;28.00;;;;;;;1.72;100.00;99972.41;5055727;28;20193;-84
2022/01/16 11:39:20;;;;;;;60.73;30.67;;;;;;;1.69;100.00;99965.50;5065112;28;20689;-84
2022/01/16 11:41:54;;;;;;;56.97;30.33;;;;;;;1.72;100.00;99965.44;5109002;28;20204;-83
2022/01/16 11:44:27;;;;;;;58.27;30.83;;;;;;;1.75;100.00;99956.72;5049464;28;20301;-84
2022/01/16 11:47:00;;;;;;;60.57;31.73;;;;;;;1.77;100.00;99962.78;5050163;28;20189;-84
2022/01/16 11:49:36;;;;;;;61.93;31.27;;;;;;;1.81;100.00;99974.03;5049407;28;20207;-84
2022/01/16 11:52:10;;;;;;;62.30;30.03;;;;;;;1.88;100.00;99965.22;5050821;28;20197;-83
2022/01/16 11:54:42;;;;;;;58.03;29.40;;;;;;;1.88;100.00;99965.22;5046331;28;20231;-83
2022/01/16 11:57:32;;;;;;;60.50;31.10;;;;;;;1.99;100.00;99969.38;5071291;28;20191;-84
2022/01/16 12:00:14;;;;;;;60.07;28.20;;;;;;;2.04;100.00;99965.84;5102573;28;20226;-85
2022/01/16 12:02:45;;;;;;;60.43;30.03;;;;;;;2.01;100.00;99972.81;5147645;27;20189;-84
2022/01/16 12:05:22;;;;;;;58.00;29.93;;;;;;;2.10;100.00;99971.81;5176719;27;20262;-84
2022/01/16 12:08:00;;;;;;;56.37;28.20;;;;;;;2.17;100.00;99967.34;5171158;27;20200;-83
2022/01/16 12:10:46;;;;;;;53.97;27.60;;;;;;;2.23;100.00;99969.88;5172178;27;20197;-84
2022/01/16 12:13:49;;;;;;;52.33;26.13;;;;;;;2.43;100.00;99967.78;5167697;27;20730;-84
2022/01/16 12:16:46;;;;;;;60.60;30.40;;;;;;;2.47;100.00;99972.03;5159137;27;20241;-84